aviador You're here:

KMYV Decoded Metar

MARYSVILLE in CA, USA
Report Time2018-06-22 22:53:00
UTC Time2018-06-22 23:00:34
Flight Rules vfr VFR
Wind300° at 05 kt
W.Decomp.*RWY 32: 4.0 kt HW 2.9 kt LCW
RWY 23: 2.9 kt HW 4.0 kt RCW
W.Rank300° ranks 26
Current wind is below 300° avg. (5.1)
Visibility9999 m
Phenomena:N/A
Clouds:N/A
Expected CloudBase > 10,400 ft AGL from Temp-Dew spread
CeilingNone
Temp38°C (ISA +23)
Dew Point12°C (21% RH)
Heat Index36.9°C
AAT36.8°C
QNH1009 hPa
Density Alt3,002 ft
Elevation69 ft
Report Wrong Elevation
Raw Report
METAR KMYV 222253Z AUTO 30005KT 10SM CLR 38/12 A2980 RMK AO2 SLP093
T03780122=

Extra information for KMYV:More info

Metar Taf Metar & Taf Last 4 Metars F.Rules Stats Wind Profile Meteogram Temp Stats Airport Information Weather charts Add Link Nearby VenuesMetar ALERT Operation Metar Decoded Social comments

AIRNAV info for KMYV